Time;durP1;ratioP1;P1;durP2;ratioP2;P2;SDS_P1;SDS_P2;PMS_P1;PMS_P2;Temp;Humidity;BMP_temperature;BMP_pressure;BME280_temperature;BME280_humidity;BME280_pressure;Samples;Min_cycle;Max_cycle;Signal;HPM_P1;HPM_P2
2023/12/09 00:00:52;;;;;;;;;;;;;;;25.67;39.63;94063.91;5035868;28;7675;-63
2023/12/09 00:03:29;;;;;;;;;;;;;;;25.69;40.25;94066.13;5012945;28;6970;-62
2023/12/09 00:05:56;;;;;;;;;;;;;;;25.69;39.46;94071.63;5005428;28;7004;-63
2023/12/09 00:08:24;;;;;;;;;;;;;;;25.68;39.43;94076.41;5013159;28;7238;-63
2023/12/09 00:10:53;;;;;;;;;;;;;;;25.67;39.69;94083.19;5029578;28;7111;-63
2023/12/09 00:13:19;;;;;;;;;;;;;;;25.67;39.84;94074.16;5013016;28;7593;-63
2023/12/09 00:15:48;;;;;;;;;;;;;;;25.66;40.17;94078.19;5023314;28;7463;-62
2023/12/09 00:18:16;;;;;;;;;;;;;;;25.66;40.14;94084.47;5013814;28;7120;-63
2023/12/09 00:20:46;;;;;;;;;;;;;;;25.64;39.96;94075.97;5011809;28;7060;-63
2023/12/09 00:23:14;;;;;;;;;;;;;;;25.67;39.80;94079.69;5028055;28;7260;-62
2023/12/09 00:25:40;;;;;;;;;;;;;;;25.67;39.80;94080.44;5026401;28;8756;-63
2023/12/09 00:28:08;;;;;;;;;;;;;;;25.66;40.16;94084.47;5019220;28;9047;-63
2023/12/09 00:30:36;;;;;;;;;;;;;;;25.66;40.02;94078.94;5028344;28;9189;-62
2023/12/09 00:33:04;;;;;;;;;;;;;;;25.66;39.52;94073.44;5013568;28;9584;-62
2023/12/09 00:35:32;;;;;;;;;;;;;;;25.66;40.16;94069.94;5027955;28;7058;-63
2023/12/09 00:38:00;;;;;;;;;;;;;;;25.65;39.68;94076.69;5002993;28;8718;-62
2023/12/09 00:40:26;;;;;;;;;;;;;;;25.66;40.12;94072.69;5002530;28;7257;-62
2023/12/09 00:42:52;;;;;;;;;;;;;;;25.65;39.41;94071.94;5006891;28;9017;-62
2023/12/09 00:45:19;;;;;;;;;;;;;;;25.63;39.81;94077.22;5019354;28;9163;-62
2023/12/09 00:47:45;;;;;;;;;;;;;;;25.65;39.31;94082.19;5024535;28;9282;-62
2023/12/09 00:50:11;;;;;;;;;;;;;;;25.64;40.13;94081.47;5007886;28;7234;-62
2023/12/09 00:52:42;;;;;;;;;;;;;;;25.60;39.83;94081.00;5043734;28;7233;-62
2023/12/09 00:55:08;;;;;;;;;;;;;;;25.64;39.23;94086.25;5026408;28;7144;-62
2023/12/09 00:57:39;;;;;;;;;;;;;;;25.64;40.19;94087.00;5010338;28;6900;-53
2023/12/09 01:00:05;;;;;;;;;;;;;;;25.65;39.32;94091.22;5026583;28;7358;-54
2023/12/09 01:02:31;;;;;;;;;;;;;;;25.63;39.75;94085.47;5025040;28;6994;-54
2023/12/09 01:05:02;;;;;;;;;;;;;;;25.65;39.46;94091.22;5022101;28;8737;-53
2023/12/09 01:07:30;;;;;;;;;;;;;;;25.63;40.11;94093.75;5023653;28;6990;-53
2023/12/09 01:09:56;;;;;;;;;;;;;;;25.63;39.53;94099.25;5011733;28;6929;-54
2023/12/09 01:12:24;;;;;;;;;;;;;;;25.61;39.84;94090.00;5010704;28;7223;-54
2023/12/09 01:14:50;;;;;;;;;;;;;;;25.64;39.98;94091.75;5025383;28;7514;-54
2023/12/09 01:17:17;;;;;;;;;;;;;;;25.65;39.55;94096.72;5016791;28;7068;-54
2023/12/09 01:19:44;;;;;;;;;;;;;;;25.66;39.85;94089.97;5010119;28;7022;-53
2023/12/09 01:22:11;;;;;;;;;;;;;;;25.63;40.06;94091.00;4993539;28;7105;-54
2023/12/09 01:24:39;;;;;;;;;;;;;;;25.64;40.14;94092.50;5013663;28;7073;-53
2023/12/09 01:27:05;;;;;;;;;;;;;;;25.65;40.27;94098.72;5023170;28;7287;-54
2023/12/09 01:29:33;;;;;;;;;;;;;;;25.62;39.84;94097.03;5026701;28;7434;-54
2023/12/09 01:32:00;;;;;;;;;;;;;;;25.63;40.06;94096.50;5011364;28;7141;-54
2023/12/09 01:34:27;;;;;;;;;;;;;;;25.63;39.50;94101.25;5011675;28;9286;-54
2023/12/09 01:36:59;;;;;;;;;;;;;;;25.62;39.69;94108.75;5025355;28;7344;-54
2023/12/09 01:39:27;;;;;;;;;;;;;;;25.61;39.67;94106.53;5021093;28;9397;-54
2023/12/09 01:41:53;;;;;;;;;;;;;;;25.63;39.54;94115.03;5011290;28;6994;-54
2023/12/09 01:44:20;;;;;;;;;;;;;;;25.60;39.42;94114.06;5027648;28;9043;-54
2023/12/09 01:46:47;;;;;;;;;;;;;;;25.60;39.42;94130.56;5010085;28;8113;-54
2023/12/09 01:49:14;;;;;;;;;;;;;;;25.62;39.90;94132.84;5017887;28;7276;-54
2023/12/09 01:51:49;;;;;;;;;;;;;;;25.61;39.19;94123.81;5012360;28;8191;-54
2023/12/09 01:54:15;;;;;;;;;;;;;;;25.61;39.33;94123.81;5007892;28;9176;-54
2023/12/09 01:56:41;;;;;;;;;;;;;;;25.61;39.32;94115.56;5025003;28;7577;-54
2023/12/09 01:59:08;;;;;;;;;;;;;;;25.59;39.68;94125.59;5010505;28;8253;-54
2023/12/09 02:01:49;;;;;;;;;;;;;;;25.62;39.31;94146.59;5009932;28;6989;-54
2023/12/09 02:04:19;;;;;;;;;;;;;;;25.61;39.07;94140.34;5027622;28;7281;-54
2023/12/09 02:07:06;;;;;;;;;;;;;;;25.57;39.84;94120.59;5028082;28;7072;-54
2023/12/09 02:09:57;;;;;;;;;;;;;;;25.60;39.80;94125.06;5044744;28;9065;-54
2023/12/09 02:12:52;;;;;;;;;;;;;;;25.60;39.98;94130.56;5011859;28;8733;-54
2023/12/09 02:16:02;;;;;;;;;;;;;;;25.59;39.29;94144.88;5008486;28;7071;-54
2023/12/09 02:18:30;;;;;;;;;;;;;;;25.58;39.44;94144.13;5008404;28;7363;-54
2023/12/09 02:21:02;;;;;;;;;;;;;;;25.59;40.28;94147.63;5022994;28;6948;-54
2023/12/09 02:23:30;;;;;;;;;;;;;;;25.55;39.50;94136.91;5028184;28;7267;-54
2023/12/09 02:26:16;;;;;;;;;;;;;;;25.58;39.82;94146.88;5013065;28;7394;-54
2023/12/09 02:28:54;;;;;;;;;;;;;;;25.57;39.39;94139.88;5008470;28;7086;-54
2023/12/09 02:31:52;;;;;;;;;;;;;;;25.59;39.79;94142.13;5027898;28;7136;-54
2023/12/09 02:34:33;;;;;;;;;;;;;;;25.60;39.39;94141.59;5021965;28;7249;-54
2023/12/09 02:37:00;;;;;;;;;;;;;;;25.58;39.77;94132.38;5011738;28;7221;-54
2023/12/09 02:39:27;;;;;;;;;;;;;;;25.55;39.64;94117.63;5011037;28;6993;-54
2023/12/09 02:41:56;;;;;;;;;;;;;;;25.59;39.51;94117.34;5011379;28;7308;-54
2023/12/09 02:44:34;;;;;;;;;;;;;;;25.56;40.13;94096.31;5003012;28;8790;-54
2023/12/09 02:47:14;;;;;;;;;;;;;;;25.57;40.09;94093.06;5014482;28;7140;-54
2023/12/09 02:49:50;;;;;;;;;;;;;;;25.55;40.09;94100.34;5027884;28;7231;-54
2023/12/09 02:52:49;;;;;;;;;;;;;;;25.57;40.26;94109.59;5044290;28;6939;-54
2023/12/09 02:55:36;;;;;;;;;;;;;;;25.58;39.77;94102.81;5000947;28;7701;-54
2023/12/09 02:58:12;;;;;;;;;;;;;;;25.56;39.46;94083.31;5009914;28;7363;-54
2023/12/09 03:00:38;;;;;;;;;;;;;;;25.55;40.10;94081.81;4989744;28;8650;-54
2023/12/09 03:03:15;;;;;;;;;;;;;;;25.58;39.34;94083.53;5007328;28;9159;-54
2023/12/09 03:06:22;;;;;;;;;;;;;;;25.59;40.03;94065.75;4990355;28;7226;-54
2023/12/09 03:09:05;;;;;;;;;;;;;;;25.59;39.38;94067.75;4962889;28;9448;-54
2023/12/09 03:11:32;;;;;;;;;;;;;;;25.58;39.49;94063.53;4967162;28;7672;-54
2023/12/09 03:14:29;;;;;;;;;;;;;;;25.56;39.66;94058.53;4954984;28;7039;-54
2023/12/09 03:16:57;;;;;;;;;;;;;;;25.57;40.06;94051.00;4916788;28;9458;-60
2023/12/09 03:19:31;;;;;;;;;;;;;;;25.56;40.08;94061.28;4930177;29;9133;-60
2023/12/09 03:22:00;;;;;;;;;;;;;;;25.56;40.15;94058.53;4936243;28;7227;-60
2023/12/09 03:24:37;;;;;;;;;;;;;;;25.56;39.92;94055.75;4933308;29;9059;-60
2023/12/09 03:27:11;;;;;;;;;;;;;;;25.55;39.46;94051.53;4938610;28;7586;-60
2023/12/09 03:29:47;;;;;;;;;;;;;;;25.56;40.53;94044.00;4936455;29;9020;-60
2023/12/09 03:32:24;;;;;;;;;;;;;;;25.54;39.94;94033.50;4882675;29;7073;-61
2023/12/09 03:35:05;;;;;;;;;;;;;;;25.55;40.19;94026.75;4874151;29;7190;-60
2023/12/09 03:37:32;;;;;;;;;;;;;;;25.55;39.77;94040.53;4898167;29;8786;-60
2023/12/09 03:40:10;;;;;;;;;;;;;;;25.55;39.26;94035.00;4919630;29;7182;-60
2023/12/09 03:42:38;;;;;;;;;;;;;;;25.56;39.99;94041.25;4935415;29;8230;-60
2023/12/09 03:45:22;;;;;;;;;;;;;;;25.54;40.17;94027.25;4936226;29;9102;-60
2023/12/09 03:48:18;;;;;;;;;;;;;;;25.57;39.36;94031.72;4944959;28;7697;-60
2023/12/09 03:50:55;;;;;;;;;;;;;;;25.56;39.62;94019.97;4936029;28;7263;-61
2023/12/09 03:53:52;;;;;;;;;;;;;;;25.57;39.21;94023.47;4966998;28;7253;-61
2023/12/09 03:56:21;;;;;;;;;;;;;;;25.56;39.39;94022.72;4948758;28;7156;-60
2023/12/09 03:59:01;;;;;;;;;;;;;;;25.52;39.73;94013.25;4964981;28;7305;-60
2023/12/09 04:01:29;;;;;;;;;;;;;;;25.55;39.87;94024.00;4946222;28;7052;-60
2023/12/09 04:04:29;;;;;;;;;;;;;;;25.57;39.98;94029.72;4944507;28;7284;-60
2023/12/09 04:07:07;;;;;;;;;;;;;;;25.56;39.70;94027.47;4930746;28;7465;-60
2023/12/09 04:09:33;;;;;;;;;;;;;;;25.55;40.00;94026.75;4943370;28;7172;-60
2023/12/09 04:12:00;;;;;;;;;;;;;;;25.54;40.18;94022.50;4919585;29;7258;-60
2023/12/09 04:14:36;;;;;;;;;;;;;;;25.56;39.69;94030.22;4936928;28;9058;-60
2023/12/09 04:17:03;;;;;;;;;;;;;;;25.56;39.71;94025.47;4934852;29;7292;-60
2023/12/09 04:19:47;;;;;;;;;;;;;;;25.55;39.54;94026.75;4934908;29;7226;-60
2023/12/09 04:22:24;;;;;;;;;;;;;;;25.55;39.79;94035.00;4929882;28;7397;-60
2023/12/09 04:25:09;;;;;;;;;;;;;;;25.56;39.39;94035.72;4935240;29;8745;-60
2023/12/09 04:27:35;;;;;;;;;;;;;;;25.55;40.13;94045.28;4934631;29;9069;-62
2023/12/09 04:30:05;;;;;;;;;;;;;;;25.55;39.10;94048.03;4934924;29;7096;-63
2023/12/09 04:32:33;;;;;;;;;;;;;;;25.52;39.68;94052.56;4932995;28;7233;-62
2023/12/09 04:35:10;;;;;;;;;;;;;;;25.55;39.87;94062.56;4993489;28;9125;-62
2023/12/09 04:37:36;;;;;;;;;;;;;;;25.53;39.76;94056.81;4971330;28;7158;-62
2023/12/09 04:40:04;;;;;;;;;;;;;;;25.56;39.85;94068.78;4992852;28;8990;-62
2023/12/09 04:42:50;;;;;;;;;;;;;;;25.56;39.42;94058.53;4994006;28;9066;-63
2023/12/09 04:45:20;;;;;;;;;;;;;;;25.55;39.03;94059.78;5029858;28;9023;-62
2023/12/09 04:47:46;;;;;;;;;;;;;;;25.54;40.02;94057.53;5010616;28;8760;-63
2023/12/09 04:50:32;;;;;;;;;;;;;;;25.56;39.28;94058.53;5012945;28;7282;-62
2023/12/09 04:53:17;;;;;;;;;;;;;;;25.54;39.71;94061.03;5014382;28;7233;-62
2023/12/09 04:56:03;;;;;;;;;;;;;;;25.54;39.91;94072.06;5022339;28;7303;-62
2023/12/09 04:58:41;;;;;;;;;;;;;;;25.56;39.69;94063.28;5012550;28;9456;-62
2023/12/09 05:01:08;;;;;;;;;;;;;;;25.54;39.62;94066.56;5012711;28;9375;-62
2023/12/09 05:03:36;;;;;;;;;;;;;;;25.54;39.15;94072.06;5013378;28;7230;-62
2023/12/09 05:06:05;;;;;;;;;;;;;;;25.55;40.19;94073.56;5013603;28;7283;-62
2023/12/09 05:08:33;;;;;;;;;;;;;;;25.54;39.96;94058.28;5012634;28;7069;-62
2023/12/09 05:11:02;;;;;;;;;;;;;;;25.52;39.72;94063.56;5028688;28;9082;-62
2023/12/09 05:13:33;;;;;;;;;;;;;;;25.54;39.29;94066.56;5027855;28;7183;-63
2023/12/09 05:16:02;;;;;;;;;;;;;;;25.55;39.79;94073.56;5028504;28;7086;-62
2023/12/09 05:18:34;;;;;;;;;;;;;;;25.53;39.09;94070.59;5011514;28;9392;-63
2023/12/09 05:21:27;;;;;;;;;;;;;;;25.54;40.09;94077.56;5013276;28;9900;-62
2023/12/09 05:24:24;;;;;;;;;;;;;;;25.55;39.95;94078.31;5013207;28;9426;-63
2023/12/09 05:27:19;;;;;;;;;;;;;;;25.54;39.66;94072.06;4963428;28;7562;-62
2023/12/09 05:29:58;;;;;;;;;;;;;;;25.54;40.06;94072.06;4958115;28;7279;-62
2023/12/09 05:32:24;;;;;;;;;;;;;;;25.53;39.88;94067.84;4962554;28;7175;-62
2023/12/09 05:34:50;;;;;;;;;;;;;;;25.53;40.08;94070.59;4967532;28;6975;-62
2023/12/09 05:37:29;;;;;;;;;;;;;;;25.52;39.61;94066.31;4967759;28;8151;-59
2023/12/09 05:40:04;;;;;;;;;;;;;;;25.54;39.61;94068.56;4957780;28;7042;-58
2023/12/09 05:42:33;;;;;;;;;;;;;;;25.54;38.96;94072.06;4971757;28;7756;-59
2023/12/09 05:45:02;;;;;;;;;;;;;;;25.50;39.63;94066.09;4963732;28;7261;-58
2023/12/09 05:47:38;;;;;;;;;;;;;;;25.50;39.43;94066.09;4961655;28;7078;-58
2023/12/09 05:50:40;;;;;;;;;;;;;;;25.54;38.95;94077.56;4971053;28;8758;-58
2023/12/09 05:53:21;;;;;;;;;;;;;;;25.53;39.42;94070.59;4983849;28;7291;-58
2023/12/09 05:55:58;;;;;;;;;;;;;;;25.52;39.33;94065.56;4970055;28;9617;-59
2023/12/09 05:58:45;;;;;;;;;;;;;;;25.55;39.92;94062.56;4952006;28;7059;-58
2023/12/09 06:01:11;;;;;;;;;;;;;;;25.53;40.07;94062.31;4955675;28;7029;-58
2023/12/09 06:03:46;;;;;;;;;;;;;;;25.54;39.82;94058.28;4989571;28;7209;-58
2023/12/09 06:06:16;;;;;;;;;;;;;;;25.53;39.19;94059.56;5025133;28;7008;-58
2023/12/09 06:09:12;;;;;;;;;;;;;;;25.54;40.04;94054.78;5012109;28;6996;-59
2023/12/09 06:11:38;;;;;;;;;;;;;;;25.50;39.69;94038.56;4940787;28;8575;-58
2023/12/09 06:14:29;;;;;;;;;;;;;;;25.52;39.00;94038.78;4949336;28;9074;-59
2023/12/09 06:16:58;;;;;;;;;;;;;;;25.52;39.93;94038.78;4951269;28;7646;-58
2023/12/09 06:19:27;;;;;;;;;;;;;;;25.54;39.86;94044.53;4952980;28;9108;-58
2023/12/09 06:22:04;;;;;;;;;;;;;;;25.55;39.28;94035.00;4945476;29;7356;-59
2023/12/09 06:24:32;;;;;;;;;;;;;;;25.55;39.74;94026.75;4951684;28;7526;-59
2023/12/09 06:26:58;;;;;;;;;;;;;;;25.54;39.53;94025.25;4936039;29;9197;-58
2023/12/09 06:29:24;;;;;;;;;;;;;;;25.54;39.21;94019.75;4949655;28;7062;-58
2023/12/09 06:31:52;;;;;;;;;;;;;;;25.55;39.67;94014.97;4980228;28;7074;-58
2023/12/09 06:34:27;;;;;;;;;;;;;;;25.54;39.47;94008.72;4939711;28;7242;-58
2023/12/09 06:37:02;;;;;;;;;;;;;;;25.54;39.60;94010.72;4945993;28;8671;-59
2023/12/09 06:39:54;;;;;;;;;;;;;;;25.55;39.04;94009.47;4986344;28;7262;-58
2023/12/09 06:42:20;;;;;;;;;;;;;;;25.56;39.08;94013.72;4953447;28;7197;-58
2023/12/09 06:44:47;;;;;;;;;;;;;;;25.54;39.96;94011.47;4947323;28;7228;-58
2023/12/09 06:47:19;;;;;;;;;;;;;;;25.55;39.48;94015.72;4971663;28;7271;-62
2023/12/09 06:49:51;;;;;;;;;;;;;;;25.55;39.72;94012.97;5013420;28;7063;-63
2023/12/09 06:52:23;;;;;;;;;;;;;;;25.52;39.53;94008.50;5019336;28;6981;-62
2023/12/09 06:55:14;;;;;;;;;;;;;;;25.58;40.15;94009.16;5013811;28;7451;-65
2023/12/09 06:57:43;;;;;;;;;;;;;;;25.63;39.09;93997.34;5022494;28;7586;-63
2023/12/09 07:00:12;;;;;;;;;;;;;;;25.70;39.25;93999.53;5028179;28;9105;-63
2023/12/09 07:02:47;;;;;;;;;;;;;;;25.67;39.37;94008.81;5014473;28;9104;-62
2023/12/09 07:05:13;;;;;;;;;;;;;;;25.65;39.15;94011.34;5009233;28;9000;-62
2023/12/09 07:07:41;;;;;;;;;;;;;;;25.60;39.52;93990.13;5014737;28;7134;-63
2023/12/09 07:10:07;;;;;;;;;;;;;;;25.63;39.66;93994.59;5014317;28;7207;-63
2023/12/09 07:12:45;;;;;;;;;;;;;;;25.64;39.07;93998.09;5028860;28;9257;-62
2023/12/09 07:15:15;;;;;;;;;;;;;;;25.60;39.82;93989.41;5014248;28;7201;-62
2023/12/09 07:17:47;;;;;;;;;;;;;;;25.60;39.49;93987.38;5030631;28;7211;-62
2023/12/09 07:20:22;;;;;;;;;;;;;;;25.59;39.77;93985.88;5013093;28;8727;-62
2023/12/09 07:22:48;;;;;;;;;;;;;;;25.60;39.35;93990.13;5014134;28;9394;-61
2023/12/09 07:25:15;;;;;;;;;;;;;;;25.62;39.46;93984.09;5014712;28;7588;-62
2023/12/09 07:27:42;;;;;;;;;;;;;;;25.62;39.43;93984.09;5011933;28;7221;-63
2023/12/09 07:30:09;;;;;;;;;;;;;;;25.64;39.21;93987.09;5009092;28;9182;-62
2023/12/09 07:32:36;;;;;;;;;;;;;;;25.64;39.60;93998.84;5010421;28;7262;-62
2023/12/09 07:35:03;;;;;;;;;;;;;;;25.64;39.97;94001.59;5011278;28;7147;-62
2023/12/09 07:37:29;;;;;;;;;;;;;;;25.62;40.14;93998.59;5028458;28;8682;-62
2023/12/09 07:39:57;;;;;;;;;;;;;;;25.62;39.86;93998.59;5039068;28;7533;-63
2023/12/09 07:42:25;;;;;;;;;;;;;;;25.66;39.28;93996.31;5046381;28;7143;-63
2023/12/09 07:44:55;;;;;;;;;;;;;;;25.68;39.02;94002.06;5029876;28;7274;-63
2023/12/09 07:47:36;;;;;;;;;;;;;;;25.75;39.88;94001.44;5014705;28;9079;-63
2023/12/09 07:50:23;;;;;;;;;;;;;;;25.80;39.43;94011.66;5015398;28;7193;-63
2023/12/09 07:52:57;;;;;;;;;;;;;;;25.83;39.84;94009.88;5013585;28;9203;-63
2023/12/09 07:55:41;;;;;;;;;;;;;;;25.82;39.37;93994.59;5031141;28;9267;-59
2023/12/09 07:58:26;;;;;;;;;;;;;;;25.89;39.90;93996.75;5007578;28;9211;-58
2023/12/09 08:00:52;;;;;;;;;;;;;;;25.87;39.04;93996.53;5016424;28;7512;-58
2023/12/09 08:03:26;;;;;;;;;;;;;;;25.89;39.63;94003.00;5014448;28;9068;-59
2023/12/09 08:05:58;;;;;;;;;;;;;;;25.89;38.99;94003.00;5028481;28;8313;-59
2023/12/09 08:08:24;;;;;;;;;;;;;;;25.90;39.66;93992.75;5011655;28;9144;-58
2023/12/09 08:10:52;;;;;;;;;;;;;;;25.90;39.65;93992.75;5029157;28;9417;-58
2023/12/09 08:13:22;;;;;;;;;;;;;;;25.89;39.13;94002.25;5014822;28;8404;-58
2023/12/09 08:16:01;;;;;;;;;;;;;;;25.87;39.20;93986.25;5029447;28;9092;-58
2023/12/09 08:18:36;;;;;;;;;;;;;;;25.91;39.75;93980.44;5028621;28;8372;-59
2023/12/09 08:21:08;;;;;;;;;;;;;;;25.96;39.27;93969.34;5012690;28;7251;-58
2023/12/09 08:23:42;;;;;;;;;;;;;;;25.98;39.53;93964.06;5000361;28;8236;-59
2023/12/09 08:26:27;;;;;;;;;;;;;;;25.98;38.93;93966.81;5027412;28;7096;-59
2023/12/09 08:29:14;;;;;;;;;;;;;;;25.98;39.13;93969.56;5011775;28;9076;-58
2023/12/09 08:31:49;;;;;;;;;;;;;;;25.97;38.92;93979.09;5013712;28;8948;-58
2023/12/09 08:34:35;;;;;;;;;;;;;;;25.99;38.76;93962.78;5014989;28;8745;-58
2023/12/09 08:37:04;;;;;;;;;;;;;;;25.99;38.64;93964.81;5034546;28;8224;-58
2023/12/09 08:40:08;;;;;;;;;;;;;;;25.98;38.76;93969.56;5005130;28;7252;-59
2023/12/09 08:42:37;;;;;;;;;;;;;;;26.00;38.68;93967.03;4980232;28;7202;-58
2023/12/09 08:45:34;;;;;;;;;;;;;;;26.00;38.65;93961.53;4999434;28;7245;-58
2023/12/09 08:48:01;;;;;;;;;;;;;;;26.00;39.17;93964.28;4927998;28;7648;-59
2023/12/09 08:50:42;;;;;;;;;;;;;;;26.01;39.34;93965.03;4955643;28;9167;-58
2023/12/09 08:53:08;;;;;;;;;;;;;;;26.00;38.99;93963.53;4930117;28;7621;-59
2023/12/09 08:55:45;;;;;;;;;;;;;;;26.00;39.57;93969.03;4936305;28;9151;-58
2023/12/09 08:58:40;;;;;;;;;;;;;;;26.02;38.68;93967.25;4952606;28;7212;-58
2023/12/09 09:01:09;;;;;;;;;;;;;;;26.00;38.97;93960.78;4934206;29;8976;-58
2023/12/09 09:03:48;;;;;;;;;;;;;;;26.01;38.94;93965.75;4933381;29;7936;-58
2023/12/09 09:06:21;;;;;;;;;;;;;;;26.01;39.55;93973.28;4909595;29;7448;-54
2023/12/09 09:08:49;;;;;;;;;;;;;;;26.00;38.71;93980.06;4934948;28;7933;-54
2023/12/09 09:12:02;;;;;;;;;;;;;;;26.01;39.58;93978.81;4933096;28;7030;-54
2023/12/09 09:14:42;;;;;;;;;;;;;;;25.97;38.86;93964.56;4840968;29;7838;-54
2023/12/09 09:17:11;;;;;;;;;;;;;;;25.98;39.06;93966.06;4851761;29;8755;-54
2023/12/09 09:20:02;;;;;;;;;;;;;;;25.95;39.61;93967.84;5065232;27;7373;-54
2023/12/09 09:22:28;;;;;;;;;;;;;;;25.93;39.67;93964.88;5052578;28;7142;-54
2023/12/09 09:24:58;;;;;;;;;;;;;;;25.97;39.85;93964.56;5045069;28;7053;-54
2023/12/09 09:27:24;;;;;;;;;;;;;;;25.96;39.11;93958.34;5040199;28;9132;-54
2023/12/09 09:29:54;;;;;;;;;;;;;;;26.00;39.65;93969.78;5042008;28;9217;-54
2023/12/09 09:32:25;;;;;;;;;;;;;;;26.01;39.57;93976.78;5047688;28;9613;-54
2023/12/09 09:34:51;;;;;;;;;;;;;;;26.02;39.01;93986.53;5047475;28;7050;-54
2023/12/09 09:37:18;;;;;;;;;;;;;;;26.02;39.51;93983.03;5054948;28;9170;-54
2023/12/09 09:39:45;;;;;;;;;;;;;;;26.02;39.82;93972.00;5047981;28;7256;-54
2023/12/09 09:42:14;;;;;;;;;;;;;;;26.03;39.72;93965.25;5031439;28;8929;-54
2023/12/09 09:44:50;;;;;;;;;;;;;;;26.04;40.03;93975.75;5045336;28;7283;-54
2023/12/09 09:47:18;;;;;;;;;;;;;;;26.06;39.94;93967.69;5043161;28;9819;-54
2023/12/09 09:50:10;;;;;;;;;;;;;;;26.08;39.70;93964.41;5041104;28;8998;-54
2023/12/09 09:52:46;;;;;;;;;;;;;;;26.07;40.06;93966.44;5020093;28;7152;-54
2023/12/09 09:55:17;;;;;;;;;;;;;;;26.09;39.82;93950.16;5044837;28;9047;-54
2023/12/09 09:57:56;;;;;;;;;;;;;;;26.11;39.81;93944.84;5023687;28;7248;-54
2023/12/09 10:00:28;;;;;;;;;;;;;;;26.14;40.01;93929.28;5043254;28;7218;-54
2023/12/09 10:03:03;;;;;;;;;;;;;;;26.15;39.83;93936.25;5042756;28;9099;-54
2023/12/09 10:05:44;;;;;;;;;;;;;;;26.16;39.75;93935.72;5038756;28;9063;-54
2023/12/09 10:08:12;;;;;;;;;;;;;;;26.14;39.55;93918.97;5025894;28;7189;-54
2023/12/09 10:11:09;;;;;;;;;;;;;;;26.13;39.50;93925.78;5026628;28;7410;-54
2023/12/09 10:13:58;;;;;;;;;;;;;;;26.11;39.49;93920.03;4981983;28;9102;-54
2023/12/09 10:16:25;;;;;;;;;;;;;;;26.09;39.56;93913.56;4965074;28;7191;-59
2023/12/09 10:18:53;;;;;;;;;;;;;;;26.06;39.82;93907.06;4933445;28;7181;-59
2023/12/09 10:21:37;;;;;;;;;;;;;;;26.08;39.42;93896.28;4962868;28;8541;-59
2023/12/09 10:24:15;;;;;;;;;;;;;;;26.09;39.33;93875.72;4965260;28;8888;-59
2023/12/09 10:26:43;;;;;;;;;;;;;;;26.07;39.77;93869.22;4963788;28;7228;-58
2023/12/09 10:29:39;;;;;;;;;;;;;;;26.05;40.10;93858.72;4964430;28;6993;-59
2023/12/09 10:32:09;;;;;;;;;;;;;;;26.15;39.34;93843.28;4874756;29;8324;-59
2023/12/09 10:34:44;;;;;;;;;;;;;;;26.30;39.30;93847.53;4893379;29;9300;-59
2023/12/09 10:37:23;;;;;;;;;;;;;;;26.28;39.48;93839.81;4883384;29;8481;-58
2023/12/09 10:39:51;;;;;;;;;;;;;;;26.26;39.23;93833.34;4896446;29;9219;-58
2023/12/09 10:42:33;;;;;;;;;;;;;;;26.21;38.98;93828.69;4900327;29;7238;-59
2023/12/09 10:45:24;;;;;;;;;;;;;;;26.27;39.40;93843.09;4890028;29;9133;-58
2023/12/09 10:47:53;;;;;;;;;;;;;;;26.22;39.90;93843.94;4891894;29;7254;-58
2023/12/09 10:50:37;;;;;;;;;;;;;;;26.16;39.42;93852.31;4911829;29;8757;-58
2023/12/09 10:53:18;;;;;;;;;;;;;;;26.13;39.12;93856.88;4926097;29;7269;-59
2023/12/09 10:55:59;;;;;;;;;;;;;;;26.12;39.44;93838.81;4918917;28;7189;-59
2023/12/09 10:58:27;;;;;;;;;;;;;;;26.16;39.20;93830.97;4916420;29;9104;-59
2023/12/09 11:00:59;;;;;;;;;;;;;;;26.17;39.78;93824.22;4932191;28;8181;-58
2023/12/09 11:03:36;;;;;;;;;;;;;;;26.16;39.58;93800.66;4934113;29;7208;-58
2023/12/09 11:06:06;;;;;;;;;;;;;;;26.10;39.83;93797.28;4929342;29;7230;-58
2023/12/09 11:08:38;;;;;;;;;;;;;;;26.13;39.81;93782.44;4969845;28;7102;-58
2023/12/09 11:11:07;;;;;;;;;;;;;;;26.12;39.42;93772.69;4994530;28;8206;-58
2023/12/09 11:13:46;;;;;;;;;;;;;;;26.11;39.63;93779.47;5011697;28;6981;-59
2023/12/09 11:16:22;;;;;;;;;;;;;;;26.10;39.72;93779.97;4996806;28;7278;-58
2023/12/09 11:18:51;;;;;;;;;;;;;;;26.10;40.12;93775.22;5010490;28;9085;-59
2023/12/09 11:21:29;;;;;;;;;;;;;;;26.10;40.11;93746.91;5014157;28;9536;-58
2023/12/09 11:23:59;;;;;;;;;;;;;;;26.11;40.12;93756.69;5000714;28;7658;-58
2023/12/09 11:26:31;;;;;;;;;;;;;;;26.08;40.30;93769.50;5011778;28;7076;-59
2023/12/09 11:29:34;;;;;;;;;;;;;;;26.05;40.06;93765.03;5014402;28;9059;-59
2023/12/09 11:32:09;;;;;;;;;;;;;;;26.07;39.93;93754.22;4972322;28;7220;-59
2023/12/09 11:34:56;;;;;;;;;;;;;;;26.09;39.51;93729.66;4963004;28;7278;-59
2023/12/09 11:37:48;;;;;;;;;;;;;;;26.10;39.52;93719.34;4972867;28;7473;-59
2023/12/09 11:40:15;;;;;;;;;;;;;;;26.11;40.37;93713.31;4961773;28;7033;-59
2023/12/09 11:42:44;;;;;;;;;;;;;;;26.13;39.91;93718.31;4965355;28;7008;-59
2023/12/09 11:45:42;;;;;;;;;;;;;;;26.12;40.49;93723.06;4952611;28;7668;-59
2023/12/09 11:48:20;;;;;;;;;;;;;;;26.15;40.21;93718.50;4941171;28;9089;-59
2023/12/09 11:50:46;;;;;;;;;;;;;;;26.15;40.28;93713.75;4965329;28;7202;-59
2023/12/09 11:53:13;;;;;;;;;;;;;;;26.16;39.67;93695.94;4967708;28;6974;-59
2023/12/09 11:56:08;;;;;;;;;;;;;;;26.20;40.21;93659.03;4966182;28;8108;-61
2023/12/09 11:58:42;;;;;;;;;;;;;;;26.17;40.42;93658.84;4913486;29;10478;-61
2023/12/09 12:01:25;;;;;;;;;;;;;;;26.21;39.92;93655.03;4910857;29;9068;-61
2023/12/09 12:03:52;;;;;;;;;;;;;;;26.23;40.13;93650.44;4930961;29;7154;-61
2023/12/09 12:06:35;;;;;;;;;;;;;;;26.20;40.06;93620.44;4922875;28;8766;-61
2023/12/09 12:09:03;;;;;;;;;;;;;;;26.21;39.90;93614.41;4945209;28;6867;-60
2023/12/09 12:11:34;;;;;;;;;;;;;;;26.19;40.40;93611.44;4951488;28;7161;-61
2023/12/09 12:14:04;;;;;;;;;;;;;;;26.16;39.61;93607.72;4945503;28;7347;-60
2023/12/09 12:16:33;;;;;;;;;;;;;;;26.22;40.23;93604.88;4960948;28;7225;-61
2023/12/09 12:18:59;;;;;;;;;;;;;;;26.23;40.09;93597.34;4939625;28;7994;-61
2023/12/09 12:21:29;;;;;;;;;;;;;;;26.24;39.58;93612.59;4953809;28;7256;-61
2023/12/09 12:24:05;;;;;;;;;;;;;;;26.25;39.92;93594.78;4957447;28;9119;-60
2023/12/09 12:26:31;;;;;;;;;;;;;;;26.25;39.74;93590.03;4953124;28;7224;-61
2023/12/09 12:28:58;;;;;;;;;;;;;;;26.26;40.00;93593.50;4952735;28;7033;-61
2023/12/09 12:31:31;;;;;;;;;;;;;;;26.24;40.37;93569.22;4946334;28;8478;-61
2023/12/09 12:33:57;;;;;;;;;;;;;;;26.27;39.93;93572.94;4943994;28;7204;-61
2023/12/09 12:36:27;;;;;;;;;;;;;;;26.26;40.43;93572.19;4995165;28;6955;-56
2023/12/09 12:39:00;;;;;;;;;;;;;;;26.25;40.50;93576.25;5008600;28;7891;-55
2023/12/09 12:41:52;;;;;;;;;;;;;;;26.26;40.20;93560.41;4990480;28;7575;-55
2023/12/09 12:44:36;;;;;;;;;;;;;;;26.27;39.93;93550.88;4973913;28;7084;-55
2023/12/09 12:47:02;;;;;;;;;;;;;;;26.24;39.90;93540.91;4977924;28;7523;-55
2023/12/09 12:49:57;;;;;;;;;;;;;;;26.23;39.64;93517.41;4988035;28;8252;-55
2023/12/09 12:52:40;;;;;;;;;;;;;;;26.19;40.37;93511.50;4916297;29;7396;-55
2023/12/09 12:55:13;;;;;;;;;;;;;;;26.17;39.89;93504.47;4930234;29;7654;-56
2023/12/09 12:57:41;;;;;;;;;;;;;;;26.18;40.29;93499.72;4912601;29;7509;-55
2023/12/09 13:00:25;;;;;;;;;;;;;;;26.18;40.09;93491.44;4916155;29;7208;-55
2023/12/09 13:02:52;;;;;;;;;;;;;;;26.18;40.16;93488.69;4929921;29;7106;-55
2023/12/09 13:05:19;;;;;;;;;;;;;;;26.16;39.65;93475.44;4927172;29;7136;-55
2023/12/09 13:07:48;;;;;;;;;;;;;;;26.15;40.37;93487.00;4928747;29;9092;-55
2023/12/09 13:10:24;;;;;;;;;;;;;;;26.15;39.57;93504.28;4916145;29;8847;-56
2023/12/09 13:12:54;;;;;;;;;;;;;;;26.18;39.91;93505.22;4933762;29;7225;-56
2023/12/09 13:15:21;;;;;;;;;;;;;;;26.14;39.83;93510.34;4914361;29;7330;-55
2023/12/09 13:18:03;;;;;;;;;;;;;;;26.16;39.69;93507.78;4925228;29;6977;-55
2023/12/09 13:20:37;;;;;;;;;;;;;;;26.11;39.66;93501.13;4925228;29;6966;-55
2023/12/09 13:23:06;;;;;;;;;;;;;;;26.15;39.44;93515.31;4926097;29;9086;-56
2023/12/09 13:25:32;;;;;;;;;;;;;;;26.14;40.01;93508.28;4932609;29;6997;-56
2023/12/09 13:28:00;;;;;;;;;;;;;;;26.14;39.62;93500.03;4929078;28;6969;-55
2023/12/09 13:30:36;;;;;;;;;;;;;;;26.12;39.70;93486.03;4988556;28;7000;-55
2023/12/09 13:33:29;;;;;;;;;;;;;;;26.11;40.24;93483.84;5010882;28;8842;-55
2023/12/09 13:36:16;;;;;;;;;;;;;;;26.15;39.69;93471.22;4961619;28;7070;-56